PWSweather.com
Personal Weather Stations
Station Observations
REUBENS
Camas Prairie, Reubens, ID

Camas PrairieReubens, ID

Lat: 46.35417, Lon: -116.53167

Elevation: 3480

Station Type: Davis VantagePro 2

http://www.theobrienranch.com/wx/wx.htm

Latest ConditionsUpdated 7:30:00 PM PDT Monday, Jul 28, 2014
Currently Today's Max Today's Min Today's Average
Temperature 86.8°F30.4°C 96.1°F35.6°C 61.6°F16.4°C 79.2°F26.2°C
Dew Point 45.7°F7.6°C 50.8°F10.4°C 43.0°F6.1°C 46.0°F7.8°C
Winds 0.4 mph NNW0.6 kmh NNW 10.5 mph SE16.9 kmh SE - 3.3 mph 5.3 kmh
Wind Gusts 2.0 mph3.2 kmh 16.0 mph25.7 kmh - -
Humidity 24% 54% 20% 33%
Pressure 29.86 in1011.2 mb 29.97 in1014.9 mb 29.85 in1010.8 mb -
Hour Temp Dew Point Humidity Winds Wind Gusts Pressure Precip Precip Rate Daily Precip Total
07:30 PM 86.8°F30.4°C 45.7°F7.6°C 24% 0.4 mph NNW0.6 kmh NNW 2.0 mph3.2 kmh 29.86 in1011.2 mb 0.00 in0.0 mm 0.00 in/hr0.0 mm/hr 0.00 in0.0 mm
07:00 PM 89.2°F31.8°C 45.4°F7.4°C 22% 3.8 mph NW6.1 kmh NW 5.0 mph8.0 kmh 29.85 in1010.8 mb 0.00 in0.0 mm 0.00 in/hr0.0 mm/hr 0.00 in0.0 mm
06:30 PM 93.2°F34.0°C 46.2°F7.9°C 20% 1.1 mph NNW1.8 kmh NNW 3.0 mph4.8 kmh 29.85 in1010.8 mb 0.00 in0.0 mm 0.00 in/hr0.0 mm/hr 0.00 in0.0 mm
06:00 PM 92.3°F33.5°C 46.7°F8.2°C 21% 0.6 mph N1.0 kmh N 2.0 mph3.2 kmh 29.86 in1011.2 mb 0.00 in0.0 mm 0.00 in/hr0.0 mm/hr 0.00 in0.0 mm
05:30 PM 91.2°F32.9°C 45.8°F7.7°C 21% 4.5 mph NE7.2 kmh NE 8.0 mph12.9 kmh 29.87 in1011.5 mb 0.00 in0.0 mm 0.00 in/hr0.0 mm/hr 0.00 in0.0 mm
05:00 PM 96.1°F35.6°C 48.6°F9.2°C 20% 2.0 mph NNW3.2 kmh NNW 4.0 mph6.4 kmh 29.86 in1011.2 mb 0.00 in0.0 mm 0.00 in/hr0.0 mm/hr 0.00 in0.0 mm
04:30 PM 90.6°F32.6°C 47.7°F8.7°C 23% 1.1 mph N1.8 kmh N 5.0 mph8.0 kmh 29.87 in1011.5 mb 0.00 in0.0 mm 0.00 in/hr0.0 mm/hr 0.00 in0.0 mm
04:00 PM 93.7°F34.3°C 50.3°F10.2°C 23% 1.8 mph N2.9 kmh N 9.0 mph14.5 kmh 29.87 in1011.5 mb 0.00 in0.0 mm 0.00 in/hr0.0 mm/hr 0.00 in0.0 mm
03:30 PM 92.9°F33.8°C 49.7°F9.8°C 23% 4.7 mph NNE7.6 kmh NNE 7.0 mph11.3 kmh 29.88 in1011.9 mb 0.00 in0.0 mm 0.00 in/hr0.0 mm/hr 0.00 in0.0 mm
03:00 PM 91.3°F32.9°C 45.9°F7.7°C 21% 1.4 mph NNE2.3 kmh NNE 3.0 mph4.8 kmh 29.89 in1012.2 mb 0.00 in0.0 mm 0.00 in/hr0.0 mm/hr 0.00 in0.0 mm
02:30 PM 92.0°F33.3°C 45.2°F7.3°C 20% 4.4 mph NE7.1 kmh NE 9.0 mph14.5 kmh 29.91 in1012.9 mb 0.00 in0.0 mm 0.00 in/hr0.0 mm/hr 0.00 in0.0 mm
02:00 PM 89.4°F31.9°C 46.8°F8.2°C 23% 5.5 mph E8.9 kmh E 9.0 mph14.5 kmh 29.92 in1013.2 mb 0.00 in0.0 mm 0.00 in/hr0.0 mm/hr 0.00 in0.0 mm
01:30 PM 88.1°F31.2°C 44.5°F6.9°C 22% 6.7 mph NE10.8 kmh NE 12.0 mph19.3 kmh 29.91 in1012.9 mb 0.00 in0.0 mm 0.00 in/hr0.0 mm/hr 0.00 in0.0 mm
01:00 PM 90.4°F32.4°C 45.1°F7.3°C 21% 8.2 mph NE13.2 kmh NE 13.0 mph20.9 kmh 29.90 in1012.5 mb 0.00 in0.0 mm 0.00 in/hr0.0 mm/hr 0.00 in0.0 mm
12:30 PM 87.7°F30.9°C 43.0°F6.1°C 21% 5.9 mph E9.5 kmh E 6.0 mph9.7 kmh 29.93 in1013.5 mb 0.00 in0.0 mm 0.00 in/hr0.0 mm/hr 0.00 in0.0 mm
12:00 PM 86.6°F30.3°C 43.2°F6.2°C 22% 10.0 mph SE16.1 kmh SE 11.0 mph17.7 kmh 29.94 in1013.9 mb 0.00 in0.0 mm 0.00 in/hr0.0 mm/hr 0.00 in0.0 mm
11:30 AM 86.7°F30.4°C 44.5°F6.9°C 23% 10.2 mph ESE16.4 kmh ESE 15.0 mph24.1 kmh 29.93 in1013.5 mb 0.00 in0.0 mm 0.00 in/hr0.0 mm/hr 0.00 in0.0 mm
11:00 AM 84.6°F29.2°C 44.9°F7.2°C 25% 10.5 mph SE16.9 kmh SE 16.0 mph25.7 kmh 29.94 in1013.9 mb 0.00 in0.0 mm 0.00 in/hr0.0 mm/hr 0.00 in0.0 mm
10:30 AM 81.4°F27.4°C 46.1°F7.8°C 29% 8.5 mph SE13.7 kmh SE 14.0 mph22.5 kmh 29.95 in1014.2 mb 0.00 in0.0 mm 0.00 in/hr0.0 mm/hr 0.00 in0.0 mm
10:00 AM 79.2°F26.2°C 46.8°F8.2°C 32% 9.1 mph ESE14.6 kmh ESE 13.0 mph20.9 kmh 29.95 in1014.2 mb 0.00 in0.0 mm 0.00 in/hr0.0 mm/hr 0.00 in0.0 mm
09:30 AM 79.0°F26.1°C 49.0°F9.4°C 35% 6.2 mph ESE10.0 kmh ESE 8.0 mph12.9 kmh 29.95 in1014.2 mb 0.00 in0.0 mm 0.00 in/hr0.0 mm/hr 0.00 in0.0 mm
09:00 AM 75.7°F24.3°C 50.3°F10.2°C 41% 4.7 mph ESE7.6 kmh ESE 6.0 mph9.7 kmh 29.96 in1014.6 mb 0.00 in0.0 mm 0.00 in/hr0.0 mm/hr 0.00 in0.0 mm
08:30 AM 74.8°F23.8°C 47.5°F8.6°C 38% 0.7 mph SE1.1 kmh SE -- 29.95 in1014.2 mb 0.00 in0.0 mm 0.00 in/hr0.0 mm/hr 0.00 in0.0 mm
08:00 AM 73.4°F23.0°C 48.3°F9.1°C 41% 7.0 mph SSE11.3 kmh SSE 10.0 mph16.1 kmh 29.95 in1014.2 mb 0.00 in0.0 mm 0.00 in/hr0.0 mm/hr 0.00 in0.0 mm
07:30 AM 72.2°F22.3°C 50.8°F10.4°C 47% 1.7 mph WSW2.7 kmh WSW 3.0 mph4.8 kmh 29.95 in1014.2 mb 0.00 in0.0 mm 0.00 in/hr0.0 mm/hr 0.00 in0.0 mm
07:00 AM 67.1°F19.5°C 46.2°F7.9°C 47% 0.1 mph NW0.2 kmh NW 2.0 mph3.2 kmh 29.97 in1014.9 mb 0.00 in0.0 mm 0.00 in/hr0.0 mm/hr 0.00 in0.0 mm
06:30 AM 63.9°F17.7°C 46.4°F8.0°C 53% Calm Calm -- 29.96 in1014.6 mb 0.00 in0.0 mm 0.00 in/hr0.0 mm/hr 0.00 in0.0 mm
06:00 AM 64.8°F18.2°C 43.5°F6.4°C 46% Calm Calm -- 29.95 in1014.2 mb 0.00 in0.0 mm 0.00 in/hr0.0 mm/hr 0.00 in0.0 mm
05:30 AM 71.1°F21.7°C 43.5°F6.4°C 37% 2.4 mph NW3.9 kmh NW 4.0 mph6.4 kmh 29.92 in1013.2 mb 0.00 in0.0 mm 0.00 in/hr0.0 mm/hr 0.00 in0.0 mm
05:00 AM 69.0°F20.6°C 43.7°F6.5°C 40% 1.4 mph NW2.3 kmh NW 3.0 mph4.8 kmh 29.92 in1013.2 mb 0.00 in0.0 mm 0.00 in/hr0.0 mm/hr 0.00 in0.0 mm
04:30 AM 65.3°F18.5°C 44.0°F6.7°C 46% 3.2 mph NW5.1 kmh NW 4.0 mph6.4 kmh 29.93 in1013.5 mb 0.00 in0.0 mm 0.00 in/hr0.0 mm/hr 0.00 in0.0 mm
04:00 AM 66.5°F19.2°C 44.5°F6.9°C 45% Calm Calm -- 29.92 in1013.2 mb 0.00 in0.0 mm 0.00 in/hr0.0 mm/hr 0.00 in0.0 mm
03:30 AM 64.4°F18.0°C 44.8°F7.1°C 49% Calm Calm -- 29.92 in1013.2 mb 0.00 in0.0 mm 0.00 in/hr0.0 mm/hr 0.00 in0.0 mm
03:00 AM 61.6°F16.4°C 44.8°F7.1°C 54% 2.0 mph NW3.2 kmh NW 3.0 mph4.8 kmh 29.92 in1013.2 mb 0.00 in0.0 mm 0.00 in/hr0.0 mm/hr 0.00 in0.0 mm
02:30 AM 65.8°F18.8°C 44.4°F6.9°C 46% Calm Calm -- 29.91 in1012.9 mb 0.00 in0.0 mm 0.00 in/hr0.0 mm/hr 0.00 in0.0 mm
02:00 AM 70.8°F21.6°C 44.6°F7.0°C 39% Calm Calm -- 29.90 in1012.5 mb 0.00 in0.0 mm 0.00 in/hr0.0 mm/hr 0.00 in0.0 mm
01:30 AM 71.0°F21.7°C 44.1°F6.7°C 38% Calm Calm -- 29.90 in1012.5 mb 0.00 in0.0 mm 0.00 in/hr0.0 mm/hr 0.00 in0.0 mm
01:00 AM 67.3°F19.6°C 46.4°F8.0°C 47% Calm Calm -- 29.92 in1013.2 mb 0.00 in0.0 mm 0.00 in/hr0.0 mm/hr 0.00 in0.0 mm
12:30 AM 70.5°F21.4°C 48.1°F8.9°C 45% 1.7 mph W2.7 kmh W 2.0 mph3.2 kmh 29.92 in1013.2 mb 0.00 in0.0 mm 0.00 in/hr0.0 mm/hr 0.00 in0.0 mm
12:00 AM 69.5°F20.8°C 44.8°F7.1°C 41% Calm Calm -- 29.92 in1013.2 mb 0.00 in0.0 mm 0.00 in/hr0.0 mm/hr 0.00 in0.0 mm